sensor_id;sensor_type;location;lat;lon;timestamp;pressure;altitude;pressure_sealevel;temperature;humidity
75157;BME280;63736;50.076;8.198;2023-06-04T00:00:55;99722.66;;;15.05;37.88
75157;BME280;63736;50.076;8.198;2023-06-04T00:03:22;99720.59;;;14.99;37.86
75157;BME280;63736;50.076;8.198;2023-06-04T00:05:47;99717.34;;;14.95;38.20
75157;BME280;63736;50.076;8.198;2023-06-04T00:08:13;99724.75;;;14.93;38.38
75157;BME280;63736;50.076;8.198;2023-06-04T00:10:38;99713.19;;;14.83;38.37
75157;BME280;63736;50.076;8.198;2023-06-04T00:13:05;99720.88;;;14.78;38.71
75157;BME280;63736;50.076;8.198;2023-06-04T00:15:30;99716.91;;;14.72;38.65
75157;BME280;63736;50.076;8.198;2023-06-04T00:17:56;99709.00;;;14.70;38.92
75157;BME280;63736;50.076;8.198;2023-06-04T00:20:22;99716.25;;;14.70;38.69
75157;BME280;63736;50.076;8.198;2023-06-04T00:22:47;99719.53;;;14.64;38.75
75157;BME280;63736;50.076;8.198;2023-06-04T00:25:12;99720.25;;;14.56;39.31
75157;BME280;63736;50.076;8.198;2023-06-04T00:27:38;99725.53;;;14.48;39.64
75157;BME280;63736;50.076;8.198;2023-06-04T00:30:04;99725.81;;;14.45;39.52
75157;BME280;63736;50.076;8.198;2023-06-04T00:32:29;99725.13;;;14.43;39.88
75157;BME280;63736;50.076;8.198;2023-06-04T00:34:55;99725.41;;;14.40;39.27
75157;BME280;63736;50.076;8.198;2023-06-04T00:37:23;99721.22;;;14.37;39.47
75157;BME280;63736;50.076;8.198;2023-06-04T00:39:48;99723.63;;;14.30;39.89
75157;BME280;63736;50.076;8.198;2023-06-04T00:42:14;99715.72;;;14.29;39.83
75157;BME280;63736;50.076;8.198;2023-06-04T00:44:39;99722.22;;;14.26;39.69
75157;BME280;63736;50.076;8.198;2023-06-04T00:47:12;99726.53;;;14.19;40.22
75157;BME280;63736;50.076;8.198;2023-06-04T00:49:38;99718.88;;;14.14;40.54
75157;BME280;63736;50.076;8.198;2023-06-04T00:52:04;99723.69;;;14.11;40.48
75157;BME280;63736;50.076;8.198;2023-06-04T00:54:29;99719.06;;;14.03;40.52
75157;BME280;63736;50.076;8.198;2023-06-04T00:56:55;99725.03;;;13.97;41.03
75157;BME280;63736;50.076;8.198;2023-06-04T00:59:20;99719.53;;;13.88;40.99
75157;BME280;63736;50.076;8.198;2023-06-04T01:02:00;99722.78;;;13.82;41.16
75157;BME280;63736;50.076;8.198;2023-06-04T01:05:30;99719.84;;;13.76;41.24
75157;BME280;63736;50.076;8.198;2023-06-04T01:07:39;99718.28;;;13.73;40.94
75157;BME280;63736;50.076;8.198;2023-06-04T01:10:06;99716.31;;;13.75;41.01
75157;BME280;63736;50.076;8.198;2023-06-04T01:12:32;99713.63;;;13.75;41.32
75157;BME280;63736;50.076;8.198;2023-06-04T01:14:57;99719.84;;;13.76;41.05
75157;BME280;63736;50.076;8.198;2023-06-04T01:17:26;99715.34;;;13.76;40.82
75157;BME280;63736;50.076;8.198;2023-06-04T01:22:47;99718.28;;;13.73;40.82
75157;BME280;63736;50.076;8.198;2023-06-04T01:25:15;99714.94;;;13.71;41.30
75157;BME280;63736;50.076;8.198;2023-06-04T01:27:49;99716.91;;;13.69;40.74
75157;BME280;63736;50.076;8.198;2023-06-04T01:30:16;99717.03;;;13.67;41.46
75157;BME280;63736;50.076;8.198;2023-06-04T01:32:42;99713.38;;;13.68;41.47
75157;BME280;63736;50.076;8.198;2023-06-04T01:35:10;99711.38;;;13.70;41.09
75157;BME280;63736;50.076;8.198;2023-06-04T01:37:36;99713.78;;;13.74;40.72
75157;BME280;63736;50.076;8.198;2023-06-04T01:40:01;99711.25;;;13.72;40.71
75157;BME280;63736;50.076;8.198;2023-06-04T01:42:26;99706.16;;;13.69;40.66
75157;BME280;63736;50.076;8.198;2023-06-04T01:44:51;99703.63;;;13.67;41.04
75157;BME280;63736;50.076;8.198;2023-06-04T01:47:17;99708.28;;;13.65;40.97
75157;BME280;63736;50.076;8.198;2023-06-04T01:49:42;99712.09;;;13.63;41.26
75157;BME280;63736;50.076;8.198;2023-06-04T01:52:07;99705.19;;;13.60;40.50
75157;BME280;63736;50.076;8.198;2023-06-04T01:54:33;99708.00;;;13.59;41.15
75157;BME280;63736;50.076;8.198;2023-06-04T01:56:59;99714.25;;;13.59;40.64
75157;BME280;63736;50.076;8.198;2023-06-04T01:59:24;99714.38;;;13.58;40.65
75157;BME280;63736;50.076;8.198;2023-06-04T02:01:50;99709.44;;;13.53;41.29
75157;BME280;63736;50.076;8.198;2023-06-04T02:04:15;99714.09;;;13.51;40.99
75157;BME280;63736;50.076;8.198;2023-06-04T02:06:40;99713.13;;;13.52;40.81
75157;BME280;63736;50.076;8.198;2023-06-04T02:09:06;99706.03;;;13.51;41.09
75157;BME280;63736;50.076;8.198;2023-06-04T02:11:31;99700.69;;;13.51;41.69
75157;BME280;63736;50.076;8.198;2023-06-04T02:13:56;99703.38;;;13.51;41.76
75157;BME280;63736;50.076;8.198;2023-06-04T02:16:22;99698.28;;;13.48;41.56
75157;BME280;63736;50.076;8.198;2023-06-04T02:18:47;99706.34;;;13.48;41.88
75157;BME280;63736;50.076;8.198;2023-06-04T02:21:12;99702.94;;;13.46;41.40
75157;BME280;63736;50.076;8.198;2023-06-04T02:23:38;99705.78;;;13.44;41.48
75157;BME280;63736;50.076;8.198;2023-06-04T02:26:03;99702.53;;;13.41;41.31
75157;BME280;63736;50.076;8.198;2023-06-04T02:28:28;99705.34;;;13.39;41.67
75157;BME280;63736;50.076;8.198;2023-06-04T02:30:53;99703.09;;;13.34;41.38
75157;BME280;63736;50.076;8.198;2023-06-04T02:33:19;99705.34;;;13.29;41.93
75157;BME280;63736;50.076;8.198;2023-06-04T02:35:45;99703.06;;;13.25;41.70
75157;BME280;63736;50.076;8.198;2023-06-04T02:38:11;99700.84;;;13.20;41.92
75157;BME280;63736;50.076;8.198;2023-06-04T02:40:36;99706.47;;;13.17;41.48
75157;BME280;63736;50.076;8.198;2023-06-04T02:43:02;99702.66;;;13.10;41.50
75157;BME280;63736;50.076;8.198;2023-06-04T02:45:27;99706.75;;;13.04;42.06
75157;BME280;63736;50.076;8.198;2023-06-04T02:47:53;99705.34;;;13.00;42.63
75157;BME280;63736;50.076;8.198;2023-06-04T02:50:19;99707.59;;;12.95;42.48
75157;BME280;63736;50.076;8.198;2023-06-04T02:52:44;99702.22;;;12.95;42.90
75157;BME280;63736;50.076;8.198;2023-06-04T02:55:10;99705.88;;;12.94;42.78
75157;BME280;63736;50.076;8.198;2023-06-04T02:57:38;99716.06;;;12.90;42.74
75157;BME280;63736;50.076;8.198;2023-06-04T03:00:04;99712.66;;;12.88;42.61
75157;BME280;63736;50.076;8.198;2023-06-04T03:02:37;99715.19;;;12.89;43.28
75157;BME280;63736;50.076;8.198;2023-06-04T03:05:03;99709.25;;;12.86;43.49
75157;BME280;63736;50.076;8.198;2023-06-04T03:07:29;99711.94;;;12.86;42.93
75157;BME280;63736;50.076;8.198;2023-06-04T03:09:54;99711.25;;;12.84;43.48
75157;BME280;63736;50.076;8.198;2023-06-04T03:12:19;99713.06;;;12.83;44.14
75157;BME280;63736;50.076;8.198;2023-06-04T03:14:45;99715.91;;;12.82;43.70
75157;BME280;63736;50.076;8.198;2023-06-04T03:17:10;99716.63;;;12.84;43.10
75157;BME280;63736;50.076;8.198;2023-06-04T03:19:40;99707.59;;;12.85;43.69
75157;BME280;63736;50.076;8.198;2023-06-04T03:22:07;99710.28;;;12.85;43.63
75157;BME280;63736;50.076;8.198;2023-06-04T03:24:39;99715.75;;;12.83;44.12
75157;BME280;63736;50.076;8.198;2023-06-04T03:27:05;99709.84;;;12.80;44.08
75157;BME280;63736;50.076;8.198;2023-06-04T03:29:32;99713.50;;;12.79;43.98
75157;BME280;63736;50.076;8.198;2023-06-04T03:31:58;99719.56;;;12.81;44.00
75157;BME280;63736;50.076;8.198;2023-06-04T03:34:24;99715.91;;;12.82;44.65
75157;BME280;63736;50.076;8.198;2023-06-04T03:36:55;99714.78;;;12.84;43.89
75157;BME280;63736;50.076;8.198;2023-06-04T03:39:21;99709.56;;;12.93;43.76
75157;BME280;63736;50.076;8.198;2023-06-04T03:41:47;99712.53;;;12.99;43.70
75157;BME280;63736;50.076;8.198;2023-06-04T03:44:14;99717.47;;;13.04;43.59
75157;BME280;63736;50.076;8.198;2023-06-04T03:46:40;99713.50;;;13.08;43.26
75157;BME280;63736;50.076;8.198;2023-06-04T03:49:06;99710.56;;;13.11;43.22
75157;BME280;63736;50.076;8.198;2023-06-04T03:51:31;99712.97;;;13.14;43.46
75157;BME280;63736;50.076;8.198;2023-06-04T03:53:58;99706.63;;;13.15;43.76
75157;BME280;63736;50.076;8.198;2023-06-04T03:56:23;99708.16;;;13.18;43.89
75157;BME280;63736;50.076;8.198;2023-06-04T03:58:49;99716.78;;;13.21;43.76
75157;BME280;63736;50.076;8.198;2023-06-04T04:01:15;99712.25;;;13.22;43.52
75157;BME280;63736;50.076;8.198;2023-06-04T04:03:42;99712.81;;;13.26;43.67
75157;BME280;63736;50.076;8.198;2023-06-04T04:06:09;99716.91;;;13.30;43.62
75157;BME280;63736;50.076;8.198;2023-06-04T04:08:35;99707.59;;;13.34;43.76
75157;BME280;63736;50.076;8.198;2023-06-04T04:11:00;99717.94;;;13.38;42.96
75157;BME280;63736;50.076;8.198;2023-06-04T04:13:26;99711.25;;;13.62;42.91
75157;BME280;63736;50.076;8.198;2023-06-04T04:15:52;99710.09;;;14.22;42.59
75157;BME280;63736;50.076;8.198;2023-06-04T04:18:19;99711.56;;;14.90;41.49
75157;BME280;63736;50.076;8.198;2023-06-04T04:20:48;99707.31;;;15.60;40.20
75157;BME280;63736;50.076;8.198;2023-06-04T04:23:14;99709.75;;;16.24;39.04
75157;BME280;63736;50.076;8.198;2023-06-04T04:25:39;99719.91;;;16.81;38.02
75157;BME280;63736;50.076;8.198;2023-06-04T04:28:05;99713.78;;;17.30;37.45
75157;BME280;63736;50.076;8.198;2023-06-04T04:30:33;99718.63;;;17.84;36.23
75157;BME280;63736;50.076;8.198;2023-06-04T04:33:00;99717.19;;;18.29;35.67
75157;BME280;63736;50.076;8.198;2023-06-04T04:35:26;99713.31;;;18.63;34.83
75157;BME280;63736;50.076;8.198;2023-06-04T04:37:51;99715.53;;;18.99;34.35
75157;BME280;63736;50.076;8.198;2023-06-04T04:40:16;99716.94;;;19.19;33.67
75157;BME280;63736;50.076;8.198;2023-06-04T04:42:41;99721.06;;;19.53;33.35
75157;BME280;63736;50.076;8.198;2023-06-04T04:45:07;99731.91;;;19.91;32.49
75157;BME280;63736;50.076;8.198;2023-06-04T04:47:33;99719.59;;;20.18;32.09
75157;BME280;63736;50.076;8.198;2023-06-04T04:49:58;99728.38;;;20.50;31.64
75157;BME280;63736;50.076;8.198;2023-06-04T04:52:24;99732.19;;;20.86;31.54
75157;BME280;63736;50.076;8.198;2023-06-04T04:54:49;99735.06;;;21.21;30.72
75157;BME280;63736;50.076;8.198;2023-06-04T04:57:14;99739.34;;;21.30;30.40
75157;BME280;63736;50.076;8.198;2023-06-04T04:59:40;99733.25;;;21.71;30.20
75157;BME280;63736;50.076;8.198;2023-06-04T05:02:05;99737.75;;;22.14;29.39
75157;BME280;63736;50.076;8.198;2023-06-04T05:04:30;99735.88;;;22.50;28.77
75157;BME280;63736;50.076;8.198;2023-06-04T05:06:56;99737.97;;;22.96;28.49
75157;BME280;63736;50.076;8.198;2023-06-04T05:09:21;99733.06;;;23.60;27.58
75157;BME280;63736;50.076;8.198;2023-06-04T05:11:47;99730.97;;;24.09;27.52
75157;BME280;63736;50.076;8.198;2023-06-04T05:14:12;99743.41;;;24.70;26.56
75157;BME280;63736;50.076;8.198;2023-06-04T05:16:37;99754.34;;;25.16;26.03
75157;BME280;63736;50.076;8.198;2023-06-04T05:19:04;99751.31;;;25.63;25.16
75157;BME280;63736;50.076;8.198;2023-06-04T05:21:29;99748.47;;;26.01;24.92
75157;BME280;63736;50.076;8.198;2023-06-04T05:23:55;99761.38;;;26.38;24.53
75157;BME280;63736;50.076;8.198;2023-06-04T05:26:21;99763.69;;;26.78;24.00
75157;BME280;63736;50.076;8.198;2023-06-04T05:28:48;99764.28;;;26.99;23.67
75157;BME280;63736;50.076;8.198;2023-06-04T05:31:14;99765.34;;;27.28;23.22
75157;BME280;63736;50.076;8.198;2023-06-04T05:33:40;99769.31;;;27.75;22.79
75157;BME280;63736;50.076;8.198;2023-06-04T05:36:06;99767.06;;;27.83;22.32
75157;BME280;63736;50.076;8.198;2023-06-04T05:38:31;99764.44;;;28.00;22.40
75157;BME280;63736;50.076;8.198;2023-06-04T05:40:56;99768.59;;;27.79;21.80
75157;BME280;63736;50.076;8.198;2023-06-04T05:43:22;99771.16;;;28.16;22.35
75157;BME280;63736;50.076;8.198;2023-06-04T05:45:48;99778.19;;;28.72;21.69
75157;BME280;63736;50.076;8.198;2023-06-04T05:48:13;99770.31;;;29.33;21.59
75157;BME280;63736;50.076;8.198;2023-06-04T05:50:39;99774.22;;;30.00;20.15
75157;BME280;63736;50.076;8.198;2023-06-04T05:53:04;99776.09;;;30.33;20.58
75157;BME280;63736;50.076;8.198;2023-06-04T05:55:29;99765.44;;;30.81;19.91
75157;BME280;63736;50.076;8.198;2023-06-04T05:57:55;99761.50;;;31.22;19.51
75157;BME280;63736;50.076;8.198;2023-06-04T06:00:20;99773.63;;;31.48;18.84
75157;BME280;63736;50.076;8.198;2023-06-04T06:02:46;99772.00;;;31.79;18.19
75157;BME280;63736;50.076;8.198;2023-06-04T06:05:14;99771.81;;;32.29;18.09
75157;BME280;63736;50.076;8.198;2023-06-04T06:07:39;99771.69;;;32.56;18.48
75157;BME280;63736;50.076;8.198;2023-06-04T06:10:05;99769.69;;;32.41;18.00
75157;BME280;63736;50.076;8.198;2023-06-04T06:12:31;99773.31;;;32.52;17.41
75157;BME280;63736;50.076;8.198;2023-06-04T06:14:56;99773.00;;;32.43;17.93
75157;BME280;63736;50.076;8.198;2023-06-04T06:17:21;99774.97;;;32.05;17.01
75157;BME280;63736;50.076;8.198;2023-06-04T06:19:47;99777.03;;;31.28;17.73
75157;BME280;63736;50.076;8.198;2023-06-04T06:22:13;99790.53;;;30.80;18.01
75157;BME280;63736;50.076;8.198;2023-06-04T06:24:39;99782.19;;;30.36;18.15
75157;BME280;63736;50.076;8.198;2023-06-04T06:27:04;99790.25;;;30.59;18.04
75157;BME280;63736;50.076;8.198;2023-06-04T06:29:30;99791.44;;;29.90;18.48
75157;BME280;63736;50.076;8.198;2023-06-04T06:31:55;99801.38;;;29.79;18.46
75157;BME280;63736;50.076;8.198;2023-06-04T06:34:20;99791.16;;;29.92;18.68
75157;BME280;63736;50.076;8.198;2023-06-04T06:36:46;99807.97;;;30.63;18.18
75157;BME280;63736;50.076;8.198;2023-06-04T06:39:12;99799.88;;;31.23;17.82
75157;BME280;63736;50.076;8.198;2023-06-04T06:41:38;99806.84;;;31.86;17.07
75157;BME280;63736;50.076;8.198;2023-06-04T06:44:06;99800.84;;;32.32;16.84
75157;BME280;63736;50.076;8.198;2023-06-04T06:46:31;99802.06;;;33.04;16.42
75157;BME280;63736;50.076;8.198;2023-06-04T06:48:57;99804.16;;;33.66;15.71
75157;BME280;63736;50.076;8.198;2023-06-04T06:51:22;99807.25;;;34.05;15.71
75157;BME280;63736;50.076;8.198;2023-06-04T06:53:49;99803.88;;;34.45;15.83
75157;BME280;63736;50.076;8.198;2023-06-04T06:56:16;99806.81;;;34.89;14.74
75157;BME280;63736;50.076;8.198;2023-06-04T06:58:41;99805.06;;;35.04;14.54
75157;BME280;63736;50.076;8.198;2023-06-04T07:01:06;99806.75;;;35.50;14.34
75157;BME280;63736;50.076;8.198;2023-06-04T07:03:32;99813.63;;;35.97;14.39
75157;BME280;63736;50.076;8.198;2023-06-04T07:05:57;99819.66;;;36.39;13.44
75157;BME280;63736;50.076;8.198;2023-06-04T07:08:22;99815.59;;;36.55;13.18
75157;BME280;63736;50.076;8.198;2023-06-04T07:10:48;99823.53;;;36.09;13.11
75157;BME280;63736;50.076;8.198;2023-06-04T07:13:13;99813.94;;;35.56;13.70
75157;BME280;63736;50.076;8.198;2023-06-04T07:15:38;99814.09;;;35.35;13.44
75157;BME280;63736;50.076;8.198;2023-06-04T07:18:04;99815.69;;;35.47;13.49
75157;BME280;63736;50.076;8.198;2023-06-04T07:20:29;99817.34;;;35.43;13.22
75157;BME280;63736;50.076;8.198;2023-06-04T07:22:55;99818.81;;;35.75;13.34
75157;BME280;63736;50.076;8.198;2023-06-04T07:25:21;99817.50;;;36.01;12.86
75157;BME280;63736;50.076;8.198;2023-06-04T07:27:48;99822.84;;;36.22;12.87
75157;BME280;63736;50.076;8.198;2023-06-04T07:30:15;99822.09;;;36.16;12.76
75157;BME280;63736;50.076;8.198;2023-06-04T07:32:41;99812.03;;;36.20;12.42
75157;BME280;63736;50.076;8.198;2023-06-04T07:35:06;99812.69;;;36.12;12.70
75157;BME280;63736;50.076;8.198;2023-06-04T07:37:32;99815.59;;;35.97;12.48
75157;BME280;63736;50.076;8.198;2023-06-04T07:39:57;99811.41;;;35.15;12.63
75157;BME280;63736;50.076;8.198;2023-06-04T07:42:23;99815.69;;;34.86;13.27
75157;BME280;63736;50.076;8.198;2023-06-04T07:44:48;99816.34;;;34.42;13.50
75157;BME280;63736;50.076;8.198;2023-06-04T07:47:13;99823.56;;;34.28;13.35
75157;BME280;63736;50.076;8.198;2023-06-04T07:49:39;99830.50;;;34.15;13.56
75157;BME280;63736;50.076;8.198;2023-06-04T07:52:04;99820.78;;;34.48;13.21
75157;BME280;63736;50.076;8.198;2023-06-04T07:54:29;99823.31;;;34.34;13.67
75157;BME280;63736;50.076;8.198;2023-06-04T07:56:54;99816.38;;;33.80;13.25
75157;BME280;63736;50.076;8.198;2023-06-04T07:59:23;99821.91;;;34.01;13.83
75157;BME280;63736;50.076;8.198;2023-06-04T08:01:50;99823.56;;;34.22;13.70
75157;BME280;63736;50.076;8.198;2023-06-04T08:04:16;99816.06;;;34.28;13.06
75157;BME280;63736;50.076;8.198;2023-06-04T08:06:41;99815.78;;;34.40;13.55
75157;BME280;63736;50.076;8.198;2023-06-04T08:09:07;99818.00;;;34.58;13.44
75157;BME280;63736;50.076;8.198;2023-06-04T08:11:35;99814.50;;;35.08;13.10
75157;BME280;63736;50.076;8.198;2023-06-04T08:14:00;99813.44;;;34.94;13.03
75157;BME280;63736;50.076;8.198;2023-06-04T08:16:25;99816.53;;;34.82;13.41
75157;BME280;63736;50.076;8.198;2023-06-04T08:18:51;99826.06;;;34.19;13.43
75157;BME280;63736;50.076;8.198;2023-06-04T08:21:25;99827.47;;;34.37;13.67
75157;BME280;63736;50.076;8.198;2023-06-04T08:23:50;99826.06;;;34.03;13.91
75157;BME280;63736;50.076;8.198;2023-06-04T08:26:16;99824.28;;;33.25;13.93
75157;BME280;63736;50.076;8.198;2023-06-04T08:28:41;99815.78;;;33.47;14.27
75157;BME280;63736;50.076;8.198;2023-06-04T08:31:06;99827.75;;;33.94;14.38
75157;BME280;63736;50.076;8.198;2023-06-04T08:33:31;99820.28;;;33.84;14.19
75157;BME280;63736;50.076;8.198;2023-06-04T08:35:57;99820.19;;;33.43;14.53
75157;BME280;63736;50.076;8.198;2023-06-04T08:38:22;99819.41;;;33.73;14.46
75157;BME280;63736;50.076;8.198;2023-06-04T08:40:52;99825.25;;;34.13;13.67
75157;BME280;63736;50.076;8.198;2023-06-04T08:43:18;99820.53;;;34.03;13.67
75157;BME280;63736;50.076;8.198;2023-06-04T08:45:49;99818.63;;;33.93;13.83
75157;BME280;63736;50.076;8.198;2023-06-04T08:48:18;99817.75;;;34.14;13.98
75157;BME280;63736;50.076;8.198;2023-06-04T08:50:46;99820.81;;;34.22;13.72
75157;BME280;63736;50.076;8.198;2023-06-04T08:53:15;99815.00;;;34.34;13.83
75157;BME280;63736;50.076;8.198;2023-06-04T08:55:40;99813.78;;;34.71;13.73
75157;BME280;63736;50.076;8.198;2023-06-04T08:58:07;99825.41;;;34.84;13.28
75157;BME280;63736;50.076;8.198;2023-06-04T09:00:33;99826.19;;;34.95;13.38
75157;BME280;63736;50.076;8.198;2023-06-04T09:03:01;99828.63;;;35.12;12.92
75157;BME280;63736;50.076;8.198;2023-06-04T09:05:27;99818.13;;;35.53;13.14
75157;BME280;63736;50.076;8.198;2023-06-04T09:07:53;99827.13;;;35.75;12.60
75157;BME280;63736;50.076;8.198;2023-06-04T09:10:24;99824.47;;;35.59;13.12
75157;BME280;63736;50.076;8.198;2023-06-04T09:12:51;99833.03;;;36.02;13.00
75157;BME280;63736;50.076;8.198;2023-06-04T09:15:16;99839.13;;;35.70;12.98
75157;BME280;63736;50.076;8.198;2023-06-04T09:17:42;99833.44;;;35.51;12.62
75157;BME280;63736;50.076;8.198;2023-06-04T09:20:07;99832.97;;;35.28;13.01
75157;BME280;63736;50.076;8.198;2023-06-04T09:22:36;99834.25;;;35.51;12.63
75157;BME280;63736;50.076;8.198;2023-06-04T09:25:06;99833.06;;;35.07;12.71
75157;BME280;63736;50.076;8.198;2023-06-04T09:27:39;99831.25;;;34.77;12.75
75157;BME280;63736;50.076;8.198;2023-06-04T09:30:05;99848.81;;;34.36;12.74
75157;BME280;63736;50.076;8.198;2023-06-04T09:32:31;99837.16;;;33.98;13.26
75157;BME280;63736;50.076;8.198;2023-06-04T09:35:12;99834.13;;;33.95;12.50
75157;BME280;63736;50.076;8.198;2023-06-04T09:37:39;99838.78;;;33.68;12.91
75157;BME280;63736;50.076;8.198;2023-06-04T09:40:05;99838.22;;;33.61;13.67
75157;BME280;63736;50.076;8.198;2023-06-04T09:45:09;99827.59;;;33.22;13.75
75157;BME280;63736;50.076;8.198;2023-06-04T09:47:39;99825.34;;;33.14;13.87
75157;BME280;63736;50.076;8.198;2023-06-04T09:50:05;99844.56;;;33.51;13.57
75157;BME280;63736;50.076;8.198;2023-06-04T09:52:34;99828.50;;;33.48;13.34
75157;BME280;63736;50.076;8.198;2023-06-04T09:55:00;99836.28;;;32.77;14.07
75157;BME280;63736;50.076;8.198;2023-06-04T09:57:28;99827.47;;;32.86;14.11
75157;BME280;63736;50.076;8.198;2023-06-04T09:59:55;99834.97;;;32.95;13.32
75157;BME280;63736;50.076;8.198;2023-06-04T10:02:22;99826.13;;;32.93;12.79
75157;BME280;63736;50.076;8.198;2023-06-04T10:04:55;99835.34;;;32.67;13.14
75157;BME280;63736;50.076;8.198;2023-06-04T10:07:24;99823.16;;;32.62;14.05
75157;BME280;63736;50.076;8.198;2023-06-04T10:09:51;99812.38;;;33.19;13.96
75157;BME280;63736;50.076;8.198;2023-06-04T10:12:22;99827.69;;;33.58;13.96
75157;BME280;63736;50.076;8.198;2023-06-04T10:14:59;99822.81;;;33.02;13.91
75157;BME280;63736;50.076;8.198;2023-06-04T10:17:27;99828.94;;;32.56;14.68
75157;BME280;63736;50.076;8.198;2023-06-04T10:19:54;99818.81;;;31.96;14.65
75157;BME280;63736;50.076;8.198;2023-06-04T10:22:21;99831.97;;;31.57;15.09
75157;BME280;63736;50.076;8.198;2023-06-04T10:24:47;99828.88;;;30.81;15.68
75157;BME280;63736;50.076;8.198;2023-06-04T10:27:12;99837.06;;;29.57;16.84
75157;BME280;63736;50.076;8.198;2023-06-04T10:29:38;99812.47;;;28.81;16.79
75157;BME280;63736;50.076;8.198;2023-06-04T10:32:04;99823.22;;;28.11;18.19
75157;BME280;63736;50.076;8.198;2023-06-04T10:34:30;99827.44;;;27.72;18.37
75157;BME280;63736;50.076;8.198;2023-06-04T10:36:56;99829.22;;;27.17;18.94
75157;BME280;63736;50.076;8.198;2023-06-04T10:39:28;99819.72;;;26.38;19.55
75157;BME280;63736;50.076;8.198;2023-06-04T10:42:01;99813.66;;;26.11;19.86
75157;BME280;63736;50.076;8.198;2023-06-04T10:44:27;99819.41;;;25.78;20.67
75157;BME280;63736;50.076;8.198;2023-06-04T10:46:53;99822.88;;;25.60;20.82
75157;BME280;63736;50.076;8.198;2023-06-04T10:49:26;99818.16;;;25.42;21.54
75157;BME280;63736;50.076;8.198;2023-06-04T10:51:52;99827.00;;;25.37;21.40
75157;BME280;63736;50.076;8.198;2023-06-04T10:54:25;99816.94;;;25.24;21.29
75157;BME280;63736;50.076;8.198;2023-06-04T10:56:51;99814.41;;;25.29;21.31
75157;BME280;63736;50.076;8.198;2023-06-04T10:59:17;99803.03;;;25.32;21.50
75157;BME280;63736;50.076;8.198;2023-06-04T11:01:44;99807.06;;;25.30;21.24
75157;BME280;63736;50.076;8.198;2023-06-04T11:04:23;99799.91;;;25.29;21.37
75157;BME280;63736;50.076;8.198;2023-06-04T11:07:09;99820.13;;;25.21;21.84
75157;BME280;63736;50.076;8.198;2023-06-04T11:09:35;99818.28;;;25.08;21.62
75157;BME280;63736;50.076;8.198;2023-06-04T11:12:02;99812.19;;;25.06;22.00
75157;BME280;63736;50.076;8.198;2023-06-04T11:14:27;99836.31;;;25.22;22.13
75157;BME280;63736;50.076;8.198;2023-06-04T11:16:53;99819.31;;;25.14;22.02
75157;BME280;63736;50.076;8.198;2023-06-04T11:19:20;99811.81;;;24.96;22.18
75157;BME280;63736;50.076;8.198;2023-06-04T11:21:45;99812.94;;;24.88;22.05
75157;BME280;63736;50.076;8.198;2023-06-04T11:24:12;99809.72;;;24.98;22.02
75157;BME280;63736;50.076;8.198;2023-06-04T11:26:38;99817.28;;;25.02;22.56
75157;BME280;63736;50.076;8.198;2023-06-04T11:29:08;99826.53;;;25.01;22.32
75157;BME280;63736;50.076;8.198;2023-06-04T11:31:44;99801.97;;;24.95;21.96
75157;BME280;63736;50.076;8.198;2023-06-04T11:34:10;99805.56;;;24.88;22.22
75157;BME280;63736;50.076;8.198;2023-06-04T11:36:38;99814.44;;;24.70;22.32
75157;BME280;63736;50.076;8.198;2023-06-04T11:39:05;99809.59;;;24.66;22.93
75157;BME280;63736;50.076;8.198;2023-06-04T11:41:35;99809.19;;;24.69;22.54
75157;BME280;63736;50.076;8.198;2023-06-04T11:44:05;99799.44;;;24.86;22.78
75157;BME280;63736;50.076;8.198;2023-06-04T11:46:34;99799.22;;;24.95;22.04
75157;BME280;63736;50.076;8.198;2023-06-04T11:49:02;99799.78;;;25.10;22.24
75157;BME280;63736;50.076;8.198;2023-06-04T11:51:27;99801.63;;;25.16;22.53
75157;BME280;63736;50.076;8.198;2023-06-04T11:53:53;99802.31;;;25.12;22.74
75157;BME280;63736;50.076;8.198;2023-06-04T11:56:18;99799.84;;;24.97;22.60
75157;BME280;63736;50.076;8.198;2023-06-04T11:58:44;99805.56;;;24.88;22.60
75157;BME280;63736;50.076;8.198;2023-06-04T12:01:14;99803.69;;;24.82;22.64
75157;BME280;63736;50.076;8.198;2023-06-04T12:03:41;99791.66;;;24.90;22.59
75157;BME280;63736;50.076;8.198;2023-06-04T12:06:17;99787.66;;;24.93;22.20
75157;BME280;63736;50.076;8.198;2023-06-04T12:08:54;99783.63;;;25.02;21.73
75157;BME280;63736;50.076;8.198;2023-06-04T12:11:34;99792.53;;;24.90;21.62
75157;BME280;63736;50.076;8.198;2023-06-04T12:14:04;99783.50;;;24.83;21.78
75157;BME280;63736;50.076;8.198;2023-06-04T12:16:30;99778.47;;;24.80;22.36
75157;BME280;63736;50.076;8.198;2023-06-04T12:19:08;99778.03;;;24.83;21.56
75157;BME280;63736;50.076;8.198;2023-06-04T12:21:35;99786.66;;;24.87;21.02
75157;BME280;63736;50.076;8.198;2023-06-04T12:24:09;99779.31;;;24.81;20.75
75157;BME280;63736;50.076;8.198;2023-06-04T12:26:36;99776.78;;;24.86;20.91
75157;BME280;63736;50.076;8.198;2023-06-04T12:29:17;99775.25;;;24.97;21.73
75157;BME280;63736;50.076;8.198;2023-06-04T12:31:46;99775.38;;;25.15;21.81
75157;BME280;63736;50.076;8.198;2023-06-04T12:34:13;99780.53;;;25.30;21.53
75157;BME280;63736;50.076;8.198;2023-06-04T12:36:39;99777.66;;;25.18;21.15
75157;BME280;63736;50.076;8.198;2023-06-04T12:39:04;99780.88;;;25.02;21.36
75157;BME280;63736;50.076;8.198;2023-06-04T12:41:31;99790.63;;;24.91;21.89
75157;BME280;63736;50.076;8.198;2023-06-04T12:43:58;99785.59;;;24.88;22.20
75157;BME280;63736;50.076;8.198;2023-06-04T12:46:24;99785.59;;;24.88;22.15
75157;BME280;63736;50.076;8.198;2023-06-04T12:48:51;99786.47;;;24.82;22.36
75157;BME280;63736;50.076;8.198;2023-06-04T12:51:16;99774.47;;;24.83;21.90
75157;BME280;63736;50.076;8.198;2023-06-04T12:53:42;99776.13;;;24.84;22.03
75157;BME280;63736;50.076;8.198;2023-06-04T12:56:08;99774.00;;;24.93;22.06
75157;BME280;63736;50.076;8.198;2023-06-04T12:58:33;99775.06;;;24.91;21.97
75157;BME280;63736;50.076;8.198;2023-06-04T13:00:59;99768.56;;;24.86;22.14
75157;BME280;63736;50.076;8.198;2023-06-04T13:03:25;99762.09;;;24.80;21.84